Time;durP1;ratioP1;P1;durP2;ratioP2;P2;SDS_P1;SDS_P2;PMS_P1;PMS_P2;Temp;Humidity;BMP_temperature;BMP_pressure;BME280_temperature;BME280_humidity;BME280_pressure;Samples;Min_cycle;Max_cycle;Signal;HPM_P1;HPM_P2
2021/12/02 00:02:27;;;;;;;17.50;4.45;;;;;;;4.06;86.54;99725.00;7398519;19;20014;-63
2021/12/02 00:04:56;;;;;;;16.13;4.70;;;;;;;4.07;86.74;99720.66;7397566;19;20015;-63
2021/12/02 00:07:25;;;;;;;13.93;4.45;;;;;;;4.07;86.72;99723.25;7398555;19;20018;-63
2021/12/02 00:09:57;;;;;;;15.35;4.43;;;;;;;4.01;85.92;99729.50;7400487;19;20375;-63
2021/12/02 00:12:26;;;;;;;16.45;4.60;;;;;;;3.98;85.73;99734.81;7397437;19;20029;-63
2021/12/02 00:14:58;;;;;;;12.07;4.35;;;;;;;4.03;85.94;99732.91;7396945;19;20041;-64
2021/12/02 00:17:29;;;;;;;13.82;4.78;;;;;;;4.11;86.71;99738.69;7398147;19;20094;-64
2021/12/02 00:23:13;;;;;;;13.73;4.18;;;;;;;4.10;86.31;99752.53;7393752;19;20030;-62
2021/12/02 00:25:45;;;;;;;13.85;3.72;;;;;;;4.02;87.18;99740.75;7403073;19;20014;-61
2021/12/02 00:28:15;;;;;;;11.10;3.00;;;;;;;3.95;88.25;99740.97;7397398;19;20015;-63
2021/12/02 00:30:44;;;;;;;12.65;3.03;;;;;;;3.92;88.69;99740.19;7396792;19;20298;-62
2021/12/02 00:33:14;;;;;;;15.60;3.17;;;;;;;3.91;89.11;99730.72;7395153;19;20034;-62
2021/12/02 00:35:45;;;;;;;14.65;2.85;;;;;;;3.87;89.57;99729.13;7397841;19;20126;-61
2021/12/02 00:38:16;;;;;;;11.02;2.60;;;;;;;3.86;89.83;99740.41;7397698;19;20023;-62
2021/12/02 00:40:48;;;;;;;18.60;3.50;;;;;;;3.85;89.54;99733.53;7400760;19;20439;-61
2021/12/02 00:43:18;;;;;;;13.43;3.05;;;;;;;3.84;89.88;99731.84;7396966;19;20092;-63
2021/12/02 00:45:48;;;;;;;10.32;3.25;;;;;;;3.85;89.99;99736.97;7397119;19;20018;-62
2021/12/02 00:48:17;;;;;;;10.98;2.70;;;;;;;3.86;90.32;99735.25;7396354;19;20014;-63
2021/12/02 00:50:50;;;;;;;12.50;3.33;;;;;;;3.89;90.64;99754.09;7397365;19;20018;-66
2021/12/02 00:53:24;;;;;;;13.43;2.88;;;;;;;3.92;90.59;99772.13;7396546;19;20045;-66
2021/12/02 00:58:32;;;;;;;14.93;2.97;;;;;;;4.04;90.52;99798.53;7384261;19;20482;-62
2021/12/02 01:01:02;;;;;;;9.40;3.13;;;;;;;3.95;89.76;99797.13;7397524;19;20023;-61
2021/12/02 01:03:35;;;;;;;10.50;3.45;;;;;;;3.77;89.19;99791.66;7398263;19;20026;-60
2021/12/02 01:06:04;;;;;;;14.02;3.53;;;;;;;3.68;89.46;99785.91;7390971;19;20057;-62
2021/12/02 01:08:35;;;;;;;12.32;3.10;;;;;;;3.71;90.22;99789.25;7390919;19;20040;-62
2021/12/02 01:11:06;;;;;;;11.13;3.38;;;;;;;3.69;90.73;99780.69;7393774;19;20089;-62
2021/12/02 01:13:38;;;;;;;11.90;3.35;;;;;;;3.67;90.80;99776.44;7394227;19;20474;-61
2021/12/02 01:16:08;;;;;;;11.77;3.17;;;;;;;3.68;91.18;99773.78;7395868;19;20396;-62
2021/12/02 01:18:37;;;;;;;7.60;3.10;;;;;;;3.70;91.31;99776.38;7392477;19;20582;-61
2021/12/02 01:21:07;;;;;;;9.50;2.60;;;;;;;3.75;91.54;99774.44;7392894;19;20325;-61
2021/12/02 01:23:36;;;;;;;11.95;3.40;;;;;;;3.72;91.33;99777.16;7392886;19;20014;-62
2021/12/02 01:26:08;;;;;;;13.93;3.38;;;;;;;3.74;91.63;99770.16;7391532;19;20013;-62
2021/12/02 01:28:40;;;;;;;9.80;3.17;;;;;;;3.77;91.45;99768.31;7394286;19;20019;-60
2021/12/02 01:31:09;;;;;;;8.98;2.63;;;;;;;3.82;91.40;99773.34;7396185;19;20006;-61
2021/12/02 01:33:41;;;;;;;10.60;2.70;;;;;;;3.82;91.25;99765.56;7392310;19;20446;-62
2021/12/02 01:36:10;;;;;;;8.20;2.92;;;;;;;3.86;91.34;99767.16;7391724;19;20378;-62
2021/12/02 01:38:39;;;;;;;13.00;2.97;;;;;;;3.85;91.54;99770.66;7392960;19;20014;-61
2021/12/02 01:41:08;;;;;;;12.30;3.30;;;;;;;3.87;91.59;99776.66;7391805;19;20871;-62
2021/12/02 01:43:52;;;;;;;11.32;3.47;;;;;;;3.93;92.13;99785.97;7391743;19;20015;-61
2021/12/02 01:46:23;;;;;;;9.73;3.65;;;;;;;3.88;91.88;99778.31;7395113;19;20018;-61
2021/12/02 01:49:00;;;;;;;13.57;3.47;;;;;;;3.88;91.96;99782.66;7390388;19;20586;-62
2021/12/02 01:51:30;;;;;;;16.45;4.30;;;;;;;3.84;92.05;99778.47;7392070;19;20015;-62
2021/12/02 01:54:07;;;;;;;11.68;3.70;;;;;;;3.84;92.14;99783.66;7390106;19;20010;-62
2021/12/02 01:56:43;;;;;;;10.57;3.53;;;;;;;3.84;92.43;99781.06;7393059;19;20040;-62
2021/12/02 01:59:19;;;;;;;12.80;3.70;;;;;;;3.84;92.61;99794.91;7391558;19;20036;-63
2021/12/02 02:01:51;;;;;;;10.68;3.97;;;;;;;3.86;92.64;99797.44;7394842;19;20025;-59
2021/12/02 02:04:23;;;;;;;14.68;4.22;;;;;;;3.87;92.73;99797.38;7391767;19;20479;-62
2021/12/02 02:06:58;;;;;;;11.05;4.03;;;;;;;3.88;92.80;99798.22;7389873;19;20587;-62
2021/12/02 02:09:29;;;;;;;8.25;3.40;;;;;;;3.89;92.86;99789.56;7390315;19;20029;-62
2021/12/02 02:11:59;;;;;;;10.07;3.75;;;;;;;3.84;92.98;99784.53;7390927;19;20007;-63
2021/12/02 02:14:31;;;;;;;15.02;4.38;;;;;;;3.85;93.00;99793.97;7390984;19;20015;-61
2021/12/02 02:17:05;;;;;;;14.30;3.95;;;;;;;3.87;93.06;99793.91;7389290;19;20021;-62
2021/12/02 02:19:35;;;;;;;11.32;3.90;;;;;;;3.84;92.98;99792.31;7390415;19;20017;-63
2021/12/02 02:22:06;;;;;;;12.80;4.78;;;;;;;3.86;92.94;99782.72;7390726;19;20018;-63
2021/12/02 02:24:36;;;;;;;13.43;4.30;;;;;;;3.90;93.05;99783.47;7393316;19;20026;-62
2021/12/02 02:27:06;;;;;;;10.23;3.90;;;;;;;3.89;92.75;99781.78;7388933;19;20022;-62
2021/12/02 02:29:35;;;;;;;9.10;4.25;;;;;;;3.83;92.68;99784.59;7390114;19;20033;-63
2021/12/02 02:32:05;;;;;;;12.00;4.22;;;;;;;3.76;92.86;99779.59;7387843;19;20467;-62
2021/12/02 02:34:34;;;;;;;12.65;4.30;;;;;;;3.73;93.03;99784.88;7389672;19;20472;-61
2021/12/02 02:37:07;;;;;;;12.32;4.53;;;;;;;3.61;93.05;99786.13;7392296;19;20018;-61
2021/12/02 02:39:37;;;;;;;13.07;3.70;;;;;;;3.53;92.99;99787.28;7388980;19;20128;-64
2021/12/02 02:42:09;;;;;;;11.27;3.50;;;;;;;3.51;93.37;99791.63;7387133;19;20007;-61
2021/12/02 02:44:39;;;;;;;11.63;3.40;;;;;;;3.49;93.52;99790.84;7390998;19;20026;-63
2021/12/02 02:47:08;;;;;;;10.63;3.00;;;;;;;3.46;93.74;99784.00;7392098;19;20495;-62
2021/12/02 02:49:37;;;;;;;9.27;3.85;;;;;;;3.48;93.59;99782.22;7387772;19;20501;-62
2021/12/02 02:52:09;;;;;;;14.13;3.72;;;;;;;3.49;93.67;99789.09;7389238;19;20025;-62
2021/12/02 02:54:38;;;;;;;9.23;3.17;;;;;;;3.46;93.70;99786.59;7388943;19;20014;-61
2021/12/02 02:57:10;;;;;;;11.18;2.97;;;;;;;3.46;93.57;99790.03;7387874;19;20351;-61
2021/12/02 02:59:57;;;;;;;11.57;3.00;;;;;;;3.47;93.84;99791.72;7390199;19;20024;-60
2021/12/02 03:02:32;;;;;;;9.07;3.05;;;;;;;3.49;93.61;99788.25;7390745;19;20498;-63
2021/12/02 03:05:10;;;;;;;11.90;3.00;;;;;;;3.47;93.39;99786.56;7387686;19;20014;-64
2021/12/02 03:07:45;;;;;;;9.82;2.70;;;;;;;3.45;93.42;99792.66;7386035;19;20138;-62
2021/12/02 03:10:20;;;;;;;7.47;2.33;;;;;;;3.46;93.34;99784.00;7390278;19;20022;-62
2021/12/02 03:12:56;;;;;;;7.07;2.30;;;;;;;3.47;93.58;99781.38;7388013;19;20347;-62
2021/12/02 03:18:07;;;;;;;4.63;2.03;;;;;;;3.39;93.16;99788.53;7385627;19;20018;-60
2021/12/02 03:20:36;;;;;;;7.43;1.90;;;;;;;3.34;92.93;99798.19;7388010;19;20562;-61
2021/12/02 03:23:08;;;;;;;7.80;2.10;;;;;;;3.41;93.07;99804.00;7388693;19;20030;-62
2021/12/02 03:25:37;;;;;;;3.97;1.63;;;;;;;3.45;93.42;99790.09;7388382;19;20014;-61
2021/12/02 03:28:06;;;;;;;6.35;1.95;;;;;;;3.44;93.21;99791.00;7386545;19;20018;-61
2021/12/02 03:30:35;;;;;;;4.97;1.90;;;;;;;3.44;93.02;99791.00;7389696;19;20022;-61
2021/12/02 03:33:04;;;;;;;8.57;1.75;;;;;;;3.40;93.01;99789.41;7388082;19;20019;-61
2021/12/02 03:35:33;;;;;;;6.78;1.67;;;;;;;3.41;93.00;99794.53;7388036;19;20025;-60
2021/12/02 03:38:02;;;;;;;4.10;1.80;;;;;;;3.41;93.03;99799.72;7387843;19;20049;-62
2021/12/02 03:40:33;;;;;;;5.13;1.92;;;;;;;3.46;92.90;99797.81;7390801;19;20019;-60
2021/12/02 03:43:02;;;;;;;6.28;1.58;;;;;;;3.46;93.01;99802.16;7391672;19;20356;-62
2021/12/02 03:45:32;;;;;;;6.28;1.60;;;;;;;3.45;92.97;99811.66;7393887;19;20014;-63
2021/12/02 03:48:01;;;;;;;7.32;1.95;;;;;;;3.40;92.74;99818.72;7387585;19;20023;-64
2021/12/02 03:50:30;;;;;;;7.00;1.42;;;;;;;3.34;92.31;99826.69;7387031;19;20018;-64
2021/12/02 03:52:59;;;;;;;4.32;1.00;;;;;;;3.26;92.06;99813.13;7392628;19;20027;-63
2021/12/02 03:55:28;;;;;;;8.35;1.35;;;;;;;3.13;91.17;99802.28;7387849;19;20494;-63
2021/12/02 03:57:59;;;;;;;7.25;0.95;;;;;;;3.14;91.65;99796.22;7385100;19;20023;-64
2021/12/02 04:00:28;;;;;;;4.60;1.10;;;;;;;3.10;92.04;99792.88;7390745;19;20025;-64
2021/12/02 04:02:57;;;;;;;3.58;0.90;;;;;;;3.06;92.42;99790.41;7388313;19;20026;-62
2021/12/02 04:05:26;;;;;;;5.70;1.10;;;;;;;3.03;92.73;99798.28;7387004;19;20029;-65
2021/12/02 04:07:55;;;;;;;2.92;0.90;;;;;;;3.01;92.48;99790.56;7384396;19;20038;-64
2021/12/02 04:10:24;;;;;;;4.63;0.80;;;;;;;3.04;92.57;99785.28;7384316;19;20045;-64
2021/12/02 04:13:03;;;;;;;5.53;1.17;;;;;;;3.10;93.00;99785.09;7386736;19;20049;-64
2021/12/02 04:15:37;;;;;;;3.58;0.93;;;;;;;3.16;93.35;99785.81;7390145;19;20019;-65
2021/12/02 04:18:06;;;;;;;4.38;1.25;;;;;;;3.16;93.36;99775.47;7387816;19;20018;-64
2021/12/02 04:20:37;;;;;;;4.20;0.80;;;;;;;3.11;92.83;99783.38;7394345;19;20019;-64
2021/12/02 04:23:07;;;;;;;4.15;1.17;;;;;;;3.14;92.87;99778.09;7397043;19;20030;-65
2021/12/02 04:25:36;;;;;;;3.50;0.90;;;;;;;3.08;92.84;99778.28;7393734;19;20522;-65
2021/12/02 04:28:05;;;;;;;6.18;0.80;;;;;;;3.09;92.92;99783.41;7391352;19;20034;-64
2021/12/02 04:30:37;;;;;;;3.13;0.70;;;;;;;3.07;92.64;99780.03;7398856;19;20340;-64
2021/12/02 04:33:06;;;;;;;2.28;0.52;;;;;;;3.09;92.69;99782.56;7398566;19;20011;-64
2021/12/02 04:35:34;;;;;;;4.80;0.80;;;;;;;3.13;92.97;99783.34;7395926;19;20018;-64
2021/12/02 04:38:03;;;;;;;6.22;0.88;;;;;;;3.11;93.05;99775.63;7390418;19;20014;-64
2021/12/02 04:40:32;;;;;;;7.63;1.00;;;;;;;3.10;92.93;99776.50;7392991;19;20024;-64
2021/12/02 04:43:01;;;;;;;2.60;0.70;;;;;;;3.08;92.70;99778.28;7395937;19;20038;-65
2021/12/02 04:45:30;;;;;;;4.78;0.68;;;;;;;3.02;92.36;99784.47;7397012;19;20022;-64
2021/12/02 04:48:01;;;;;;;3.33;0.55;;;;;;;3.03;92.56;99785.34;7390657;19;20019;-64
2021/12/02 04:50:30;;;;;;;3.63;0.88;;;;;;;3.01;92.26;99792.28;7390521;19;20010;-65
2021/12/02 04:52:59;;;;;;;4.50;1.35;;;;;;;3.00;92.30;99785.44;7392332;19;20030;-63
2021/12/02 04:55:28;;;;;;;2.42;0.82;;;;;;;2.99;92.17;99792.34;7392574;19;20474;-65
2021/12/02 04:57:57;;;;;;;4.47;1.38;;;;;;;3.00;92.21;99795.78;7394220;19;20027;-65
2021/12/02 05:00:26;;;;;;;6.53;1.45;;;;;;;2.98;92.28;99792.38;7396634;19;20022;-64
2021/12/02 05:02:55;;;;;;;7.47;1.20;;;;;;;3.01;92.34;99800.06;7392239;19;20022;-63
2021/12/02 05:05:27;;;;;;;7.28;1.80;;;;;;;2.98;92.24;99801.00;7396521;19;20452;-64
2021/12/02 05:07:59;;;;;;;4.40;1.88;;;;;;;3.02;92.30;99805.19;7392471;19;20018;-64
2021/12/02 05:10:28;;;;;;;4.43;1.90;;;;;;;3.02;92.64;99800.00;7390560;19;20023;-64
2021/12/02 05:12:57;;;;;;;7.50;2.40;;;;;;;3.06;92.64;99798.19;7391738;19;20018;-65
2021/12/02 05:15:25;;;;;;;5.90;2.28;;;;;;;3.08;92.59;99801.56;7396070;19;20025;-63
2021/12/02 05:17:54;;;;;;;5.70;2.08;;;;;;;3.12;92.63;99818.69;7388649;19;20018;-64
2021/12/02 05:20:23;;;;;;;6.57;1.98;;;;;;;3.11;92.76;99828.22;7394202;19;20312;-65
2021/12/02 05:22:55;;;;;;;6.65;1.92;;;;;;;3.13;92.80;99827.34;7392077;19;20014;-63
2021/12/02 05:25:24;;;;;;;5.30;1.98;;;;;;;3.13;92.55;99835.09;7392274;19;20014;-64
2021/12/02 05:27:52;;;;;;;6.25;1.80;;;;;;;3.10;92.47;99833.44;7388844;19;20025;-65
2021/12/02 05:30:21;;;;;;;6.13;1.63;;;;;;;2.99;91.50;99846.69;7393016;19;20014;-65
2021/12/02 05:32:50;;;;;;;4.22;1.48;;;;;;;2.90;91.63;99842.63;7392090;19;20026;-65
2021/12/02 05:35:19;;;;;;;7.63;1.95;;;;;;;2.89;91.92;99840.06;7392019;19;20019;-64
2021/12/02 05:37:48;;;;;;;6.07;1.92;;;;;;;2.86;92.16;99840.16;7384766;19;20017;-64
2021/12/02 05:40:20;;;;;;;7.82;1.40;;;;;;;2.79;91.77;99849.84;7391114;19;20010;-65
2021/12/02 05:42:49;;;;;;;3.78;1.10;;;;;;;2.70;91.41;99850.94;7392272;19;20120;-64
2021/12/02 05:45:18;;;;;;;5.28;1.20;;;;;;;2.63;91.78;99849.41;7394721;19;20030;-65
2021/12/02 05:47:46;;;;;;;5.75;1.15;;;;;;;2.68;92.41;99837.22;7389397;19;20010;-67
2021/12/02 05:50:15;;;;;;;3.47;1.30;;;;;;;2.71;92.77;99831.94;7390117;19;20104;-64
2021/12/02 05:52:44;;;;;;;3.63;1.50;;;;;;;2.74;92.66;99833.59;7391136;19;20014;-63
2021/12/02 05:55:13;;;;;;;6.10;1.20;;;;;;;2.78;92.81;99835.22;7391128;19;20011;-63
2021/12/02 05:57:45;;;;;;;2.58;0.93;;;;;;;2.72;92.15;99833.66;7390884;19;20010;-64
2021/12/02 06:00:15;;;;;;;3.97;0.93;;;;;;;2.69;91.78;99838.06;7394914;19;20023;-65
2021/12/02 06:02:44;;;;;;;1.80;0.90;;;;;;;2.71;92.33;99862.16;7391124;19;20104;-64
2021/12/02 06:05:17;;;;;;;2.10;0.90;;;;;;;2.73;92.50;99870.72;7392295;19;20476;-64
2021/12/02 06:07:46;;;;;;;2.05;0.90;;;;;;;2.74;92.85;99870.66;7391557;19;20029;-64
2021/12/02 06:10:15;;;;;;;5.10;0.95;;;;;;;2.80;93.00;99872.22;7388631;19;20010;-64
2021/12/02 06:12:46;;;;;;;3.55;1.10;;;;;;;2.78;92.81;99866.28;7390417;19;20022;-64
2021/12/02 06:15:15;;;;;;;3.93;1.17;;;;;;;2.76;92.60;99857.69;7394696;19;20026;-64
2021/12/02 06:17:44;;;;;;;3.63;1.10;;;;;;;2.81;92.78;99865.31;7388611;19;20353;-63
2021/12/02 06:20:17;;;;;;;3.58;1.50;;;;;;;2.82;92.74;99861.84;7391933;19;20029;-65
2021/12/02 06:22:46;;;;;;;3.63;1.30;;;;;;;2.82;92.66;99875.63;7393995;19;20094;-64
2021/12/02 06:25:44;;;;;;;4.35;1.63;;;;;;;2.83;92.41;99886.81;7390790;19;20058;-65
2021/12/02 06:28:11;;;;;;;3.35;1.30;;;;;;;2.90;92.64;99875.41;7387237;19;20007;-64
2021/12/02 06:30:40;;;;;;;4.93;1.63;;;;;;;2.95;92.70;99870.94;7394130;19;20422;-64
2021/12/02 06:33:10;;;;;;;5.68;1.70;;;;;;;2.85;92.48;99872.97;7389699;19;20070;-64
2021/12/02 06:35:39;;;;;;;4.70;1.20;;;;;;;2.76;92.12;99875.78;7389769;19;20014;-65
2021/12/02 06:38:08;;;;;;;5.70;1.50;;;;;;;2.75;92.29;99876.66;7387041;19;20015;-64
2021/12/02 06:40:38;;;;;;;6.88;2.00;;;;;;;2.72;92.45;99864.69;7388811;19;20044;-64
2021/12/02 06:43:07;;;;;;;3.90;1.75;;;;;;;2.74;92.75;99872.41;7390346;19;20471;-65
2021/12/02 06:45:39;;;;;;;5.57;1.92;;;;;;;2.70;92.92;99876.81;7389588;19;20023;-63
2021/12/02 06:48:08;;;;;;;6.07;2.47;;;;;;;2.68;93.00;99877.72;7387540;19;20370;-64
2021/12/02 06:50:37;;;;;;;9.13;2.50;;;;;;;2.66;93.10;99880.34;7388850;19;20479;-65
2021/12/02 06:53:07;;;;;;;6.32;2.45;;;;;;;2.61;93.27;99887.41;7388975;19;20015;-65
2021/12/02 06:55:36;;;;;;;9.85;3.03;;;;;;;2.59;93.57;99882.28;7389015;19;20010;-65
2021/12/02 06:58:05;;;;;;;8.40;3.00;;;;;;;2.62;93.68;99883.91;7386098;19;20021;-65
2021/12/02 07:00:34;;;;;;;6.07;3.10;;;;;;;2.59;93.42;99890.03;7392477;19;20038;-66
2021/12/02 07:03:05;;;;;;;6.97;3.03;;;;;;;2.52;93.41;99890.22;7390983;19;20376;-65
2021/12/02 07:05:35;;;;;;;10.85;3.55;;;;;;;2.48;93.43;99886.88;7391559;19;20014;-64
2021/12/02 07:08:05;;;;;;;8.85;3.42;;;;;;;2.43;93.42;99894.75;7392746;19;20025;-64
2021/12/02 07:10:33;;;;;;;6.97;3.78;;;;;;;2.46;93.63;99890.41;7389165;19;20503;-64
2021/12/02 07:13:02;;;;;;;7.50;3.78;;;;;;;2.41;93.55;99893.94;7390578;19;20022;-64
2021/12/02 07:15:34;;;;;;;7.25;4.00;;;;;;;2.41;93.51;99908.63;7394267;19;20013;-65
2021/12/02 07:18:12;;;;;;;8.07;4.17;;;;;;;2.45;93.87;99917.13;7389018;19;20026;-65
2021/12/02 07:20:42;;;;;;;9.75;4.70;;;;;;;2.48;93.98;99915.31;7330742;19;20006;-65
2021/12/02 07:23:11;;;;;;;8.35;5.35;;;;;;;2.55;94.04;99928.94;7389968;19;20599;-66
2021/12/02 07:25:41;;;;;;;9.75;5.43;;;;;;;2.59;94.04;99933.13;7390368;19;20470;-64
2021/12/02 07:28:11;;;;;;;10.02;5.30;;;;;;;2.64;93.94;99936.47;7387981;19;20138;-64
2021/12/02 07:30:40;;;;;;;8.35;4.90;;;;;;;2.66;93.68;99936.44;7387947;19;20104;-67
2021/12/02 07:33:13;;;;;;;10.52;5.32;;;;;;;2.61;93.60;99944.31;7389323;19;20007;-66
2021/12/02 07:35:42;;;;;;;7.85;4.40;;;;;;;2.52;93.31;99947.97;7392138;19;20094;-66
2021/12/02 07:38:11;;;;;;;7.65;4.20;;;;;;;2.45;93.11;99948.16;7388021;19;20022;-65
2021/12/02 07:40:41;;;;;;;8.75;4.40;;;;;;;2.39;92.89;99949.16;7389421;19;20015;-66
2021/12/02 07:43:10;;;;;;;12.65;4.90;;;;;;;2.34;93.05;99946.69;7389863;19;20015;-66
2021/12/02 07:45:39;;;;;;;7.07;4.53;;;;;;;2.25;92.97;99950.34;7388767;19;20018;-65
2021/12/02 07:48:12;;;;;;;8.27;4.70;;;;;;;2.21;93.14;99947.88;7386293;19;20112;-67
2021/12/02 07:50:41;;;;;;;8.45;4.90;;;;;;;2.18;93.40;99953.97;7388653;19;20426;-66
2021/12/02 07:53:11;;;;;;;9.35;4.57;;;;;;;2.19;93.53;99967.72;7393874;19;20021;-66
2021/12/02 07:55:42;;;;;;;10.10;4.90;;;;;;;2.18;93.49;99968.63;7396634;19;20033;-65
2021/12/02 07:58:12;;;;;;;9.18;4.75;;;;;;;2.18;93.81;99966.88;7394018;19;20345;-66
2021/12/02 08:00:42;;;;;;;7.75;4.55;;;;;;;2.19;93.80;99967.72;7400610;19;20483;-66
2021/12/02 08:03:14;;;;;;;10.10;4.50;;;;;;;2.21;93.98;99968.56;7394214;19;20017;-66
2021/12/02 08:05:43;;;;;;;;;;;;;;;2.23;94.12;99979.69;7394318;19;20011;-66
2021/12/02 08:08:12;;;;;;;10.68;4.97;;;;;;;2.28;94.33;99982.16;7397539;19;19911;-67
2021/12/02 08:10:41;;;;;;;10.32;4.68;;;;;;;2.33;94.41;99982.91;7397648;19;20093;-66
2021/12/02 08:13:10;;;;;;;8.98;5.13;;;;;;;2.42;94.42;99983.56;7395880;19;20108;-66
2021/12/02 08:15:38;;;;;;;8.50;5.00;;;;;;;2.51;94.49;99997.16;7396614;19;20009;-66
2021/12/02 08:18:08;;;;;;;13.02;5.40;;;;;;;2.60;94.56;99989.16;7392871;19;20015;-67
2021/12/02 08:20:39;;;;;;;15.82;5.20;;;;;;;2.62;94.45;99979.59;7397509;19;20021;-66
2021/12/02 08:23:08;;;;;;;11.80;5.23;;;;;;;2.65;94.16;99989.91;7396802;19;20070;-66
2021/12/02 08:25:37;;;;;;;9.45;5.10;;;;;;;2.66;93.97;99996.75;7396650;19;20262;-66
2021/12/02 08:28:07;;;;;;;10.95;5.57;;;;;;;2.70;94.15;99998.38;7393170;19;20026;-67
2021/12/02 08:30:37;;;;;;;10.85;4.97;;;;;;;2.76;94.08;100000.81;7394742;19;20014;-66
2021/12/02 08:33:08;;;;;;;9.75;4.80;;;;;;;2.84;94.21;100003.22;7392346;19;20049;-66
2021/12/02 08:35:39;;;;;;;10.55;5.45;;;;;;;2.92;94.20;100006.47;7395275;19;20517;-66
2021/12/02 08:38:11;;;;;;;13.40;5.63;;;;;;;2.96;94.20;100014.97;7395532;19;20053;-66
2021/12/02 08:40:42;;;;;;;11.05;5.28;;;;;;;2.92;93.84;100016.81;7394827;19;20651;-66
2021/12/02 08:43:13;;;;;;;13.75;5.30;;;;;;;2.97;94.08;100028.78;7396334;19;20440;-65
2021/12/02 08:45:44;;;;;;;10.55;4.80;;;;;;;2.95;94.01;100031.38;7395927;19;20077;-66
2021/12/02 08:48:14;;;;;;;11.63;5.95;;;;;;;2.92;93.68;100031.47;7394138;19;20034;-66
2021/12/02 08:50:47;;;;;;;15.35;6.47;;;;;;;2.92;93.88;100026.28;7395649;19;21468;-65
2021/12/02 08:53:16;;;;;;;12.45;6.07;;;;;;;2.91;93.98;100032.38;7398752;19;20441;-66
2021/12/02 08:55:45;;;;;;;13.50;6.10;;;;;;;2.89;93.90;100039.31;7394861;19;20078;-66
2021/12/02 08:58:14;;;;;;;14.30;6.18;;;;;;;2.80;93.46;100042.97;7394439;19;20392;-65
2021/12/02 09:00:44;;;;;;;11.68;5.95;;;;;;;2.68;92.83;100040.69;7395598;19;20503;-66
2021/12/02 09:03:16;;;;;;;10.75;5.90;;;;;;;2.63;92.74;100042.56;7394264;19;20018;-65
2021/12/02 09:05:47;;;;;;;10.85;5.88;;;;;;;2.67;92.99;100046.75;7395300;19;20022;-65
2021/12/02 09:08:19;;;;;;;11.23;5.57;;;;;;;2.69;93.29;100048.41;7396672;19;20094;-66
2021/12/02 09:10:48;;;;;;;12.30;6.50;;;;;;;2.73;93.34;100050.03;7396525;19;20019;-67
2021/12/02 09:13:17;;;;;;;13.07;6.15;;;;;;;2.79;93.44;100056.78;7395578;19;20443;-67
2021/12/02 09:15:46;;;;;;;10.55;5.72;;;;;;;2.81;93.56;100056.75;7393947;19;20836;-66
2021/12/02 09:18:15;;;;;;;12.80;6.15;;;;;;;2.84;93.61;100061.88;7392890;19;20540;-66
2021/12/02 09:20:46;;;;;;;14.30;6.28;;;;;;;2.89;93.53;100066.03;7397952;19;20190;-66
2021/12/02 09:23:15;;;;;;;11.30;5.80;;;;;;;2.95;93.76;100077.97;7394410;19;20078;-67
2021/12/02 09:25:45;;;;;;;10.57;6.38;;;;;;;2.96;93.70;100082.25;7393962;19;20479;-66
2021/12/02 09:28:15;;;;;;;10.50;6.55;;;;;;;2.97;93.78;100076.19;7392351;19;20022;-66
2021/12/02 09:30:44;;;;;;;11.63;6.35;;;;;;;3.04;94.17;100084.69;7393355;19;20034;-67
2021/12/02 09:33:13;;;;;;;10.18;5.63;;;;;;;3.02;93.84;100087.28;7393882;19;20014;-66
2021/12/02 09:35:42;;;;;;;12.27;5.40;;;;;;;2.98;93.55;100087.38;7394152;19;20471;-66
2021/12/02 09:38:13;;;;;;;11.43;5.20;;;;;;;3.01;93.34;100085.59;7396531;19;20014;-67
2021/12/02 09:40:44;;;;;;;13.15;5.45;;;;;;;3.04;93.54;100089.84;7398391;19;20090;-66
2021/12/02 09:43:14;;;;;;;12.07;5.53;;;;;;;3.01;93.63;100076.97;7395267;19;20015;-67
2021/12/02 09:45:44;;;;;;;15.45;5.25;;;;;;;3.02;93.56;100076.06;7393231;19;20045;-67
2021/12/02 09:48:13;;;;;;;12.05;4.90;;;;;;;3.10;93.60;100074.16;7391485;19;20010;-67
2021/12/02 09:50:50;;;;;;;8.52;4.90;;;;;;;3.17;93.52;100074.84;7392423;19;20074;-66
2021/12/02 09:53:25;;;;;;;6.72;3.88;;;;;;;3.18;92.94;100079.13;7395200;19;20030;-65
2021/12/02 09:56:04;;;;;;;8.50;3.90;;;;;;;3.25;93.05;100084.13;7391711;19;20045;-65
2021/12/02 09:58:33;;;;;;;8.13;4.35;;;;;;;3.31;93.10;100085.72;7390339;19;20144;-66
2021/12/02 10:01:08;;;;;;;5.38;3.15;;;;;;;3.27;92.78;100084.91;7391643;19;20011;-66
2021/12/02 10:03:38;;;;;;;5.65;3.10;;;;;;;3.14;91.44;100078.38;7391206;19;20018;-66
2021/12/02 10:06:10;;;;;;;5.07;2.53;;;;;;;3.05;91.28;100095.00;7391306;19;20340;-67
2021/12/02 10:08:50;;;;;;;5.55;2.70;;;;;;;3.03;91.46;100098.50;7395248;19;20022;-66
2021/12/02 10:11:29;;;;;;;7.38;2.90;;;;;;;3.13;92.07;100099.97;7392209;19;20090;-66
2021/12/02 10:14:15;;;;;;;3.88;2.70;;;;;;;3.15;91.66;100099.91;7391931;19;20341;-66
2021/12/02 10:16:46;;;;;;;5.82;2.33;;;;;;;3.20;92.01;100108.44;7389287;19;20022;-65
2021/12/02 10:19:19;;;;;;;4.57;2.10;;;;;;;3.17;91.54;100113.69;7391775;19;20018;-66
2021/12/02 10:21:52;;;;;;;4.70;2.20;;;;;;;3.13;91.12;100112.06;7393537;19;20029;-66
2021/12/02 10:24:26;;;;;;;5.43;3.30;;;;;;;3.14;91.71;100113.75;7391444;19;20026;-66
2021/12/02 10:26:57;;;;;;;3.78;2.53;;;;;;;3.06;90.84;100119.13;7390141;19;20050;-66
2021/12/02 10:29:27;;;;;;;4.63;2.30;;;;;;;2.96;90.53;100125.41;7389290;19;20406;-66
2021/12/02 10:32:09;;;;;;;5.03;2.50;;;;;;;2.96;90.71;100122.81;7390768;19;20019;-67
2021/12/02 10:34:53;;;;;;;6.50;2.60;;;;;;;2.97;91.43;100129.72;7390816;19;20347;-66
2021/12/02 10:37:23;;;;;;;6.00;2.80;;;;;;;2.89;90.84;100140.22;7391232;19;20041;-66
2021/12/02 10:40:02;;;;;;;6.13;3.00;;;;;;;2.86;91.04;100141.13;7391049;19;20028;-66
2021/12/02 10:42:32;;;;;;;4.93;3.05;;;;;;;2.91;91.31;100136.72;7391338;19;20018;-66
2021/12/02 10:45:04;;;;;;;6.40;2.85;;;;;;;2.97;91.65;100130.56;7390573;19;20019;-66
2021/12/02 10:47:34;;;;;;;4.45;2.63;;;;;;;3.02;91.12;100128.69;7388922;19;20018;-66
2021/12/02 10:50:09;;;;;;;5.00;3.28;;;;;;;3.05;91.05;100117.41;7390871;19;20020;-66
2021/12/02 10:52:39;;;;;;;5.22;3.10;;;;;;;3.06;90.86;100117.38;7391284;19;20364;-66
2021/12/02 10:55:13;;;;;;;5.05;3.38;;;;;;;3.07;90.47;100118.25;7391803;19;20455;-66
2021/12/02 10:57:48;;;;;;;5.65;3.00;;;;;;;3.18;90.93;100118.81;7388633;19;20018;-66
2021/12/02 11:00:19;;;;;;;5.80;3.20;;;;;;;3.21;90.94;100120.47;7390266;19;20021;-66
2021/12/02 11:02:52;;;;;;;6.13;3.70;;;;;;;3.29;91.20;100127.19;7389980;19;20018;-66
2021/12/02 11:05:25;;;;;;;4.85;2.88;;;;;;;3.43;91.64;100120.78;7390728;19;20527;-66
2021/12/02 11:07:56;;;;;;;6.68;3.40;;;;;;;3.59;92.23;100126.41;7390354;19;20022;-66
2021/12/02 11:10:28;;;;;;;5.22;3.67;;;;;;;3.76;92.17;100116.41;7389921;19;20070;-66
2021/12/02 11:12:58;;;;;;;;;;;;;;;3.91;92.12;100130.72;7392193;19;20025;-66
2021/12/02 11:15:28;;;;;;;5.13;2.10;;;;;;;3.89;89.35;100132.47;7389884;19;20269;-66
2021/12/02 11:17:59;;;;;;;4.55;2.03;;;;;;;3.86;88.54;100122.22;7388045;19;20046;-65
2021/12/02 11:20:31;;;;;;;4.00;2.03;;;;;;;3.80;87.90;100127.56;7390020;19;20444;-66
2021/12/02 11:23:03;;;;;;;5.13;2.13;;;;;;;3.80;88.89;100130.16;7392249;19;20021;-67
2021/12/02 11:25:37;;;;;;;5.22;2.40;;;;;;;3.87;89.79;100143.78;7390180;19;20565;-66
2021/12/02 11:28:08;;;;;;;3.75;2.08;;;;;;;3.88;89.22;100150.66;7390508;19;20014;-66
2021/12/02 11:30:39;;;;;;;3.30;1.60;;;;;;;3.93;89.52;100159.19;7397691;19;20515;-67
2021/12/02 11:33:09;;;;;;;2.97;1.60;;;;;;;3.98;89.85;100162.47;7394496;19;20011;-67
2021/12/02 11:35:40;;;;;;;3.42;2.38;;;;;;;4.05;90.18;100168.34;7397696;19;20007;-66
2021/12/02 11:38:14;;;;;;;5.38;2.20;;;;;;;4.08;90.24;100176.88;7397294;19;20033;-67
2021/12/02 11:40:50;;;;;;;4.32;2.00;;;;;;;4.13;90.53;100169.00;7397414;19;20070;-65
2021/12/02 11:43:21;;;;;;;3.40;1.80;;;;;;;4.13;90.33;100171.59;7394161;19;20745;-67
2021/12/02 11:45:52;;;;;;;3.10;1.98;;;;;;;4.16;90.48;100180.13;7396282;19;20078;-67
2021/12/02 11:48:24;;;;;;;3.55;1.90;;;;;;;4.19;90.76;100179.19;7394510;19;20513;-67
2021/12/02 11:50:57;;;;;;;4.70;2.20;;;;;;;4.22;91.03;100183.44;7397576;19;20007;-67
2021/12/02 11:53:27;;;;;;;5.00;2.03;;;;;;;4.14;88.98;100186.22;7397267;19;20400;-65
2021/12/02 11:56:02;;;;;;;4.22;1.70;;;;;;;4.13;89.31;100184.56;7395348;19;20007;-66
2021/12/02 11:58:31;;;;;;;2.42;1.77;;;;;;;4.17;89.66;100183.56;7393528;19;20514;-67
2021/12/02 12:01:01;;;;;;;5.22;2.30;;;;;;;4.24;90.07;100186.81;7395894;19;20006;-67
2021/12/02 12:03:39;;;;;;;3.03;2.00;;;;;;;4.24;90.27;100187.69;7396870;19;20007;-67